sensor_id;sensor_type;location;lat;lon;timestamp;P1;durP1;ratioP1;P2;durP2;ratioP2
12312;SDS011;6220;53.580;9.758;2022-12-07T00:03:38;15.27;;;12.27;;
12312;SDS011;6220;53.580;9.758;2022-12-07T00:06:05;15.10;;;11.90;;
12312;SDS011;6220;53.580;9.758;2022-12-07T00:08:31;16.87;;;12.13;;
12312;SDS011;6220;53.580;9.758;2022-12-07T00:11:01;14.40;;;11.47;;
12312;SDS011;6220;53.580;9.758;2022-12-07T00:13:29;15.63;;;10.43;;
12312;SDS011;6220;53.580;9.758;2022-12-07T00:15:56;13.03;;;10.97;;
12312;SDS011;6220;53.580;9.758;2022-12-07T00:18:26;13.53;;;11.07;;
12312;SDS011;6220;53.580;9.758;2022-12-07T00:20:52;14.00;;;11.47;;
12312;SDS011;6220;53.580;9.758;2022-12-07T00:23:25;13.33;;;10.63;;
12312;SDS011;6220;53.580;9.758;2022-12-07T00:25:51;15.27;;;11.37;;
12312;SDS011;6220;53.580;9.758;2022-12-07T00:28:17;14.83;;;11.17;;
12312;SDS011;6220;53.580;9.758;2022-12-07T00:30:43;14.50;;;11.00;;
12312;SDS011;6220;53.580;9.758;2022-12-07T00:33:10;15.07;;;11.47;;
12312;SDS011;6220;53.580;9.758;2022-12-07T00:35:38;13.00;;;11.07;;
12312;SDS011;6220;53.580;9.758;2022-12-07T00:38:03;16.20;;;11.17;;
12312;SDS011;6220;53.580;9.758;2022-12-07T00:40:29;13.27;;;10.73;;
12312;SDS011;6220;53.580;9.758;2022-12-07T00:42:55;15.17;;;10.67;;
12312;SDS011;6220;53.580;9.758;2022-12-07T00:45:22;12.33;;;10.50;;
12312;SDS011;6220;53.580;9.758;2022-12-07T00:47:48;15.00;;;10.17;;
12312;SDS011;6220;53.580;9.758;2022-12-07T00:50:14;14.23;;;10.43;;
12312;SDS011;6220;53.580;9.758;2022-12-07T00:52:40;11.20;;;9.47;;
12312;SDS011;6220;53.580;9.758;2022-12-07T00:55:06;11.43;;;9.07;;
12312;SDS011;6220;53.580;9.758;2022-12-07T00:57:33;14.33;;;9.70;;
12312;SDS011;6220;53.580;9.758;2022-12-07T00:59:59;11.17;;;8.90;;
12312;SDS011;6220;53.580;9.758;2022-12-07T01:02:25;15.90;;;9.20;;
12312;SDS011;6220;53.580;9.758;2022-12-07T01:04:51;12.63;;;9.60;;
12312;SDS011;6220;53.580;9.758;2022-12-07T01:07:16;11.67;;;8.67;;
12312;SDS011;6220;53.580;9.758;2022-12-07T01:09:41;13.97;;;8.80;;
12312;SDS011;6220;53.580;9.758;2022-12-07T01:12:07;10.93;;;8.67;;
12312;SDS011;6220;53.580;9.758;2022-12-07T01:14:32;18.33;;;13.70;;
12312;SDS011;6220;53.580;9.758;2022-12-07T01:16:57;20.53;;;13.27;;
12312;SDS011;6220;53.580;9.758;2022-12-07T01:19:27;10.67;;;8.47;;
12312;SDS011;6220;53.580;9.758;2022-12-07T01:21:54;14.83;;;8.63;;
12312;SDS011;6220;53.580;9.758;2022-12-07T01:24:22;13.67;;;9.00;;
12312;SDS011;6220;53.580;9.758;2022-12-07T01:26:49;12.83;;;8.60;;
12312;SDS011;6220;53.580;9.758;2022-12-07T01:29:16;11.70;;;9.00;;
12312;SDS011;6220;53.580;9.758;2022-12-07T01:31:43;12.33;;;9.03;;
12312;SDS011;6220;53.580;9.758;2022-12-07T01:34:08;12.30;;;9.07;;
12312;SDS011;6220;53.580;9.758;2022-12-07T01:36:38;12.23;;;9.17;;
12312;SDS011;6220;53.580;9.758;2022-12-07T01:39:05;10.97;;;9.10;;
12312;SDS011;6220;53.580;9.758;2022-12-07T01:41:34;11.40;;;8.83;;
12312;SDS011;6220;53.580;9.758;2022-12-07T01:44:09;11.70;;;8.47;;
12312;SDS011;6220;53.580;9.758;2022-12-07T01:46:58;12.33;;;9.10;;
12312;SDS011;6220;53.580;9.758;2022-12-07T01:49:34;12.20;;;7.90;;
12312;SDS011;6220;53.580;9.758;2022-12-07T01:52:15;12.33;;;8.43;;
12312;SDS011;6220;53.580;9.758;2022-12-07T01:54:51;9.70;;;7.63;;
12312;SDS011;6220;53.580;9.758;2022-12-07T01:57:19;10.00;;;7.93;;
12312;SDS011;6220;53.580;9.758;2022-12-07T01:59:47;12.20;;;7.40;;
12312;SDS011;6220;53.580;9.758;2022-12-07T02:02:18;12.30;;;7.30;;
12312;SDS011;6220;53.580;9.758;2022-12-07T02:04:45;11.20;;;7.53;;
12312;SDS011;6220;53.580;9.758;2022-12-07T02:07:12;10.90;;;7.13;;
12312;SDS011;6220;53.580;9.758;2022-12-07T02:09:38;13.37;;;6.97;;
12312;SDS011;6220;53.580;9.758;2022-12-07T02:12:03;10.97;;;7.07;;
12312;SDS011;6220;53.580;9.758;2022-12-07T02:14:31;9.67;;;7.07;;
12312;SDS011;6220;53.580;9.758;2022-12-07T02:17:01;9.90;;;6.87;;
12312;SDS011;6220;53.580;9.758;2022-12-07T02:19:58;12.10;;;7.03;;
12312;SDS011;6220;53.580;9.758;2022-12-07T02:30:55;10.23;;;5.87;;
12312;SDS011;6220;53.580;9.758;2022-12-07T02:33:28;8.57;;;5.40;;
12312;SDS011;6220;53.580;9.758;2022-12-07T02:36:10;10.23;;;5.83;;
12312;SDS011;6220;53.580;9.758;2022-12-07T02:38:50;10.00;;;6.20;;
12312;SDS011;6220;53.580;9.758;2022-12-07T02:41:26;7.47;;;5.23;;
12312;SDS011;6220;53.580;9.758;2022-12-07T02:44:02;7.47;;;5.40;;
12312;SDS011;6220;53.580;9.758;2022-12-07T02:46:31;9.07;;;4.60;;
12312;SDS011;6220;53.580;9.758;2022-12-07T02:48:59;9.30;;;4.97;;
12312;SDS011;6220;53.580;9.758;2022-12-07T02:51:29;8.77;;;4.73;;
12312;SDS011;6220;53.580;9.758;2022-12-07T02:53:55;6.00;;;4.00;;
12312;SDS011;6220;53.580;9.758;2022-12-07T03:09:58;6.23;;;2.90;;
12312;SDS011;6220;53.580;9.758;2022-12-07T03:12:29;7.73;;;2.93;;
12312;SDS011;6220;53.580;9.758;2022-12-07T03:15:08;6.40;;;2.80;;
12312;SDS011;6220;53.580;9.758;2022-12-07T03:17:38;5.03;;;2.43;;
12312;SDS011;6220;53.580;9.758;2022-12-07T03:20:05;7.47;;;2.60;;
12312;SDS011;6220;53.580;9.758;2022-12-07T03:22:33;3.90;;;2.47;;
12312;SDS011;6220;53.580;9.758;2022-12-07T03:25:04;6.87;;;2.20;;
12312;SDS011;6220;53.580;9.758;2022-12-07T03:27:34;4.90;;;2.30;;
12312;SDS011;6220;53.580;9.758;2022-12-07T03:30:10;6.07;;;2.10;;
12312;SDS011;6220;53.580;9.758;2022-12-07T03:32:41;4.57;;;1.70;;
12312;SDS011;6220;53.580;9.758;2022-12-07T03:35:12;6.50;;;2.00;;
12312;SDS011;6220;53.580;9.758;2022-12-07T03:38:02;3.37;;;1.97;;
12312;SDS011;6220;53.580;9.758;2022-12-07T03:40:44;4.53;;;2.03;;
12312;SDS011;6220;53.580;9.758;2022-12-07T03:43:27;5.90;;;2.40;;
12312;SDS011;6220;53.580;9.758;2022-12-07T03:45:58;4.87;;;2.13;;
12312;SDS011;6220;53.580;9.758;2022-12-07T03:48:39;6.10;;;2.17;;
12312;SDS011;6220;53.580;9.758;2022-12-07T03:51:27;6.83;;;2.40;;
12312;SDS011;6220;53.580;9.758;2022-12-07T03:54:02;4.30;;;1.80;;
12312;SDS011;6220;53.580;9.758;2022-12-07T03:56:35;4.07;;;1.80;;
12312;SDS011;6220;53.580;9.758;2022-12-07T03:59:02;6.23;;;1.97;;
12312;SDS011;6220;53.580;9.758;2022-12-07T04:01:27;4.47;;;1.80;;
12312;SDS011;6220;53.580;9.758;2022-12-07T04:03:53;5.67;;;1.93;;
12312;SDS011;6220;53.580;9.758;2022-12-07T04:06:19;6.43;;;2.03;;
12312;SDS011;6220;53.580;9.758;2022-12-07T04:08:46;4.73;;;1.53;;
12312;SDS011;6220;53.580;9.758;2022-12-07T04:11:12;4.50;;;1.70;;
12312;SDS011;6220;53.580;9.758;2022-12-07T04:13:43;4.33;;;1.73;;
12312;SDS011;6220;53.580;9.758;2022-12-07T04:16:27;4.70;;;1.70;;
12312;SDS011;6220;53.580;9.758;2022-12-07T04:18:53;5.30;;;2.30;;
12312;SDS011;6220;53.580;9.758;2022-12-07T04:21:18;7.00;;;2.30;;
12312;SDS011;6220;53.580;9.758;2022-12-07T04:23:44;3.20;;;1.83;;
12312;SDS011;6220;53.580;9.758;2022-12-07T04:26:10;7.77;;;2.17;;
12312;SDS011;6220;53.580;9.758;2022-12-07T04:28:37;3.43;;;2.27;;
12312;SDS011;6220;53.580;9.758;2022-12-07T04:31:02;4.80;;;2.10;;
12312;SDS011;6220;53.580;9.758;2022-12-07T04:33:28;5.03;;;1.90;;
12312;SDS011;6220;53.580;9.758;2022-12-07T04:35:54;6.47;;;2.00;;
12312;SDS011;6220;53.580;9.758;2022-12-07T04:38:19;2.33;;;1.80;;
12312;SDS011;6220;53.580;9.758;2022-12-07T04:40:45;5.03;;;1.87;;
12312;SDS011;6220;53.580;9.758;2022-12-07T04:43:12;3.97;;;2.10;;
12312;SDS011;6220;53.580;9.758;2022-12-07T04:45:37;3.60;;;2.10;;
12312;SDS011;6220;53.580;9.758;2022-12-07T04:48:03;2.93;;;1.97;;
12312;SDS011;6220;53.580;9.758;2022-12-07T04:50:28;5.27;;;1.70;;
12312;SDS011;6220;53.580;9.758;2022-12-07T04:52:59;4.77;;;1.70;;
12312;SDS011;6220;53.580;9.758;2022-12-07T04:55:26;3.07;;;1.83;;
12312;SDS011;6220;53.580;9.758;2022-12-07T04:57:52;6.30;;;2.00;;
12312;SDS011;6220;53.580;9.758;2022-12-07T05:00:17;3.20;;;2.13;;
12312;SDS011;6220;53.580;9.758;2022-12-07T05:02:43;5.37;;;2.27;;
12312;SDS011;6220;53.580;9.758;2022-12-07T05:05:09;4.87;;;2.00;;
12312;SDS011;6220;53.580;9.758;2022-12-07T05:07:36;3.57;;;2.00;;
12312;SDS011;6220;53.580;9.758;2022-12-07T05:10:03;5.53;;;2.30;;
12312;SDS011;6220;53.580;9.758;2022-12-07T05:12:28;4.83;;;2.40;;
12312;SDS011;6220;53.580;9.758;2022-12-07T05:14:54;3.40;;;1.97;;
12312;SDS011;6220;53.580;9.758;2022-12-07T05:17:19;5.60;;;2.10;;
12312;SDS011;6220;53.580;9.758;2022-12-07T05:19:44;5.20;;;2.30;;
12312;SDS011;6220;53.580;9.758;2022-12-07T05:22:10;3.60;;;2.20;;
12312;SDS011;6220;53.580;9.758;2022-12-07T05:24:36;2.70;;;2.43;;
12312;SDS011;6220;53.580;9.758;2022-12-07T05:27:03;2.47;;;2.07;;
12312;SDS011;6220;53.580;9.758;2022-12-07T05:29:28;5.83;;;2.70;;
12312;SDS011;6220;53.580;9.758;2022-12-07T05:31:54;4.37;;;2.43;;
12312;SDS011;6220;53.580;9.758;2022-12-07T05:34:19;3.93;;;2.53;;
12312;SDS011;6220;53.580;9.758;2022-12-07T05:36:44;7.60;;;2.40;;
12312;SDS011;6220;53.580;9.758;2022-12-07T05:39:12;4.70;;;2.63;;
12312;SDS011;6220;53.580;9.758;2022-12-07T05:41:38;2.80;;;2.50;;
12312;SDS011;6220;53.580;9.758;2022-12-07T05:44:22;4.00;;;2.40;;
12312;SDS011;6220;53.580;9.758;2022-12-07T05:46:48;3.30;;;2.60;;
12312;SDS011;6220;53.580;9.758;2022-12-07T05:49:14;7.03;;;2.70;;
12312;SDS011;6220;53.580;9.758;2022-12-07T05:51:40;4.33;;;2.80;;
12312;SDS011;6220;53.580;9.758;2022-12-07T05:54:06;3.07;;;2.53;;
12312;SDS011;6220;53.580;9.758;2022-12-07T05:56:31;4.17;;;2.80;;
12312;SDS011;6220;53.580;9.758;2022-12-07T05:59:02;3.83;;;2.70;;
12312;SDS011;6220;53.580;9.758;2022-12-07T06:01:46;4.13;;;2.60;;
12312;SDS011;6220;53.580;9.758;2022-12-07T06:04:11;7.20;;;2.67;;
12312;SDS011;6220;53.580;9.758;2022-12-07T06:06:44;7.57;;;2.70;;
12312;SDS011;6220;53.580;9.758;2022-12-07T06:09:10;4.13;;;2.60;;
12312;SDS011;6220;53.580;9.758;2022-12-07T06:11:37;4.57;;;2.50;;
12312;SDS011;6220;53.580;9.758;2022-12-07T06:14:20;5.97;;;2.80;;
12312;SDS011;6220;53.580;9.758;2022-12-07T06:16:46;5.23;;;2.40;;
12312;SDS011;6220;53.580;9.758;2022-12-07T06:19:11;29.07;;;18.77;;
12312;SDS011;6220;53.580;9.758;2022-12-07T06:21:37;7.47;;;3.80;;
12312;SDS011;6220;53.580;9.758;2022-12-07T06:24:02;5.93;;;2.17;;
12312;SDS011;6220;53.580;9.758;2022-12-07T06:26:28;4.57;;;2.43;;
12312;SDS011;6220;53.580;9.758;2022-12-07T06:28:53;4.47;;;2.37;;
12312;SDS011;6220;53.580;9.758;2022-12-07T06:31:18;6.80;;;2.37;;
12312;SDS011;6220;53.580;9.758;2022-12-07T06:33:44;7.13;;;3.90;;
12312;SDS011;6220;53.580;9.758;2022-12-07T06:36:09;6.13;;;3.30;;
12312;SDS011;6220;53.580;9.758;2022-12-07T06:38:35;5.93;;;3.10;;
12312;SDS011;6220;53.580;9.758;2022-12-07T06:41:00;6.33;;;2.10;;
12312;SDS011;6220;53.580;9.758;2022-12-07T06:43:26;3.27;;;2.10;;
12312;SDS011;6220;53.580;9.758;2022-12-07T06:45:52;3.50;;;1.83;;
12312;SDS011;6220;53.580;9.758;2022-12-07T06:48:18;6.77;;;2.13;;
12312;SDS011;6220;53.580;9.758;2022-12-07T06:50:48;3.70;;;1.97;;
12312;SDS011;6220;53.580;9.758;2022-12-07T06:53:14;5.07;;;1.90;;
12312;SDS011;6220;53.580;9.758;2022-12-07T06:55:39;5.13;;;2.00;;
12312;SDS011;6220;53.580;9.758;2022-12-07T06:58:05;3.20;;;1.87;;
12312;SDS011;6220;53.580;9.758;2022-12-07T07:00:30;4.33;;;1.97;;
12312;SDS011;6220;53.580;9.758;2022-12-07T07:02:55;3.20;;;1.83;;
12312;SDS011;6220;53.580;9.758;2022-12-07T07:05:21;6.57;;;2.00;;
12312;SDS011;6220;53.580;9.758;2022-12-07T07:07:47;3.67;;;2.00;;
12312;SDS011;6220;53.580;9.758;2022-12-07T07:10:16;3.00;;;1.60;;
12312;SDS011;6220;53.580;9.758;2022-12-07T07:12:42;4.77;;;1.70;;
12312;SDS011;6220;53.580;9.758;2022-12-07T07:15:08;4.03;;;1.77;;
12312;SDS011;6220;53.580;9.758;2022-12-07T07:17:36;4.03;;;1.97;;
12312;SDS011;6220;53.580;9.758;2022-12-07T07:20:01;4.40;;;1.50;;
12312;SDS011;6220;53.580;9.758;2022-12-07T07:22:28;4.30;;;1.77;;
12312;SDS011;6220;53.580;9.758;2022-12-07T07:24:53;2.17;;;1.40;;
12312;SDS011;6220;53.580;9.758;2022-12-07T07:27:18;2.87;;;1.30;;
12312;SDS011;6220;53.580;9.758;2022-12-07T07:29:43;4.20;;;1.70;;
12312;SDS011;6220;53.580;9.758;2022-12-07T07:32:09;3.53;;;1.73;;
12312;SDS011;6220;53.580;9.758;2022-12-07T07:34:34;4.07;;;1.73;;
12312;SDS011;6220;53.580;9.758;2022-12-07T07:36:59;3.57;;;1.47;;
12312;SDS011;6220;53.580;9.758;2022-12-07T07:39:25;4.63;;;1.83;;
12312;SDS011;6220;53.580;9.758;2022-12-07T07:41:50;3.57;;;1.63;;
12312;SDS011;6220;53.580;9.758;2022-12-07T07:44:16;6.03;;;1.90;;
12312;SDS011;6220;53.580;9.758;2022-12-07T07:46:42;6.83;;;1.97;;
12312;SDS011;6220;53.580;9.758;2022-12-07T07:49:08;3.50;;;1.50;;
12312;SDS011;6220;53.580;9.758;2022-12-07T07:51:35;4.20;;;1.73;;
12312;SDS011;6220;53.580;9.758;2022-12-07T07:54:02;6.77;;;1.80;;
12312;SDS011;6220;53.580;9.758;2022-12-07T07:56:28;3.17;;;1.60;;
12312;SDS011;6220;53.580;9.758;2022-12-07T07:58:54;4.00;;;1.50;;
12312;SDS011;6220;53.580;9.758;2022-12-07T08:01:20;2.27;;;1.60;;
12312;SDS011;6220;53.580;9.758;2022-12-07T08:03:48;4.30;;;2.00;;
12312;SDS011;6220;53.580;9.758;2022-12-07T08:06:15;3.07;;;1.83;;
12312;SDS011;6220;53.580;9.758;2022-12-07T08:08:40;2.53;;;1.50;;
12312;SDS011;6220;53.580;9.758;2022-12-07T08:11:07;5.00;;;1.80;;
12312;SDS011;6220;53.580;9.758;2022-12-07T08:13:33;7.03;;;2.07;;
12312;SDS011;6220;53.580;9.758;2022-12-07T08:15:58;6.77;;;2.10;;
12312;SDS011;6220;53.580;9.758;2022-12-07T08:18:29;4.03;;;1.50;;
12312;SDS011;6220;53.580;9.758;2022-12-07T08:20:58;2.17;;;1.57;;
12312;SDS011;6220;53.580;9.758;2022-12-07T08:23:25;4.83;;;1.93;;
12312;SDS011;6220;53.580;9.758;2022-12-07T08:25:51;6.13;;;2.07;;
12312;SDS011;6220;53.580;9.758;2022-12-07T08:28:17;6.50;;;1.90;;
12312;SDS011;6220;53.580;9.758;2022-12-07T08:30:42;3.73;;;1.43;;
12312;SDS011;6220;53.580;9.758;2022-12-07T08:33:08;6.13;;;1.90;;
12312;SDS011;6220;53.580;9.758;2022-12-07T08:35:35;5.47;;;1.93;;
12312;SDS011;6220;53.580;9.758;2022-12-07T08:38:01;1.93;;;1.70;;
12312;SDS011;6220;53.580;9.758;2022-12-07T08:40:27;6.43;;;2.50;;
12312;SDS011;6220;53.580;9.758;2022-12-07T08:42:56;4.80;;;1.80;;
12312;SDS011;6220;53.580;9.758;2022-12-07T08:45:28;7.93;;;1.93;;
12312;SDS011;6220;53.580;9.758;2022-12-07T08:47:58;4.93;;;2.23;;
12312;SDS011;6220;53.580;9.758;2022-12-07T08:50:27;6.17;;;2.57;;
12312;SDS011;6220;53.580;9.758;2022-12-07T08:52:53;6.83;;;1.93;;
12312;SDS011;6220;53.580;9.758;2022-12-07T08:55:21;6.43;;;1.90;;
12312;SDS011;6220;53.580;9.758;2022-12-07T08:57:46;4.43;;;2.00;;
12312;SDS011;6220;53.580;9.758;2022-12-07T09:00:12;6.00;;;1.93;;
12312;SDS011;6220;53.580;9.758;2022-12-07T09:02:38;5.27;;;2.00;;
12312;SDS011;6220;53.580;9.758;2022-12-07T09:05:03;9.50;;;1.90;;
12312;SDS011;6220;53.580;9.758;2022-12-07T09:07:29;5.60;;;1.93;;
12312;SDS011;6220;53.580;9.758;2022-12-07T09:09:55;5.30;;;2.17;;
12312;SDS011;6220;53.580;9.758;2022-12-07T09:12:23;3.70;;;2.00;;
12312;SDS011;6220;53.580;9.758;2022-12-07T09:14:50;4.70;;;1.80;;
12312;SDS011;6220;53.580;9.758;2022-12-07T09:17:15;8.53;;;1.70;;
12312;SDS011;6220;53.580;9.758;2022-12-07T09:19:41;12.13;;;2.37;;
12312;SDS011;6220;53.580;9.758;2022-12-07T09:22:07;4.83;;;2.10;;
12312;SDS011;6220;53.580;9.758;2022-12-07T09:24:33;5.77;;;1.97;;
12312;SDS011;6220;53.580;9.758;2022-12-07T09:26:59;3.73;;;1.77;;
12312;SDS011;6220;53.580;9.758;2022-12-07T09:29:25;6.87;;;2.00;;
12312;SDS011;6220;53.580;9.758;2022-12-07T09:31:51;7.33;;;2.97;;
12312;SDS011;6220;53.580;9.758;2022-12-07T09:34:17;7.80;;;3.67;;
12312;SDS011;6220;53.580;9.758;2022-12-07T09:36:42;5.27;;;2.30;;
12312;SDS011;6220;53.580;9.758;2022-12-07T09:39:09;6.43;;;2.27;;
12312;SDS011;6220;53.580;9.758;2022-12-07T09:41:39;5.20;;;2.20;;
12312;SDS011;6220;53.580;9.758;2022-12-07T09:44:07;7.70;;;2.10;;
12312;SDS011;6220;53.580;9.758;2022-12-07T09:46:36;5.67;;;2.23;;
12312;SDS011;6220;53.580;9.758;2022-12-07T09:49:04;3.23;;;1.70;;
12312;SDS011;6220;53.580;9.758;2022-12-07T09:51:30;5.10;;;1.80;;
12312;SDS011;6220;53.580;9.758;2022-12-07T09:53:56;4.67;;;1.97;;
12312;SDS011;6220;53.580;9.758;2022-12-07T09:56:21;6.30;;;2.00;;
12312;SDS011;6220;53.580;9.758;2022-12-07T09:58:47;4.13;;;1.87;;
12312;SDS011;6220;53.580;9.758;2022-12-07T10:01:20;2.70;;;1.80;;
12312;SDS011;6220;53.580;9.758;2022-12-07T10:03:53;7.40;;;2.20;;
12312;SDS011;6220;53.580;9.758;2022-12-07T10:06:20;3.20;;;1.80;;
12312;SDS011;6220;53.580;9.758;2022-12-07T10:08:47;2.87;;;1.47;;
12312;SDS011;6220;53.580;9.758;2022-12-07T10:11:13;5.17;;;1.57;;
12312;SDS011;6220;53.580;9.758;2022-12-07T10:13:43;5.37;;;1.63;;
12312;SDS011;6220;53.580;9.758;2022-12-07T10:16:45;2.33;;;1.40;;
12312;SDS011;6220;53.580;9.758;2022-12-07T10:24:38;6.80;;;1.80;;
12312;SDS011;6220;53.580;9.758;2022-12-07T10:27:17;2.10;;;1.37;;
12312;SDS011;6220;53.580;9.758;2022-12-07T10:29:48;6.83;;;1.63;;
12312;SDS011;6220;53.580;9.758;2022-12-07T10:34:40;3.77;;;1.67;;
12312;SDS011;6220;53.580;9.758;2022-12-07T10:39:41;3.47;;;1.70;;
12312;SDS011;6220;53.580;9.758;2022-12-07T10:42:17;4.77;;;1.60;;
12312;SDS011;6220;53.580;9.758;2022-12-07T10:44:49;3.50;;;1.67;;
12312;SDS011;6220;53.580;9.758;2022-12-07T10:47:36;4.20;;;1.80;;
12312;SDS011;6220;53.580;9.758;2022-12-07T10:55:20;5.30;;;1.87;;
12312;SDS011;6220;53.580;9.758;2022-12-07T10:58:00;1.97;;;1.43;;
12312;SDS011;6220;53.580;9.758;2022-12-07T11:00:39;4.77;;;1.70;;
12312;SDS011;6220;53.580;9.758;2022-12-07T11:03:20;7.50;;;1.83;;
12312;SDS011;6220;53.580;9.758;2022-12-07T11:11:04;6.10;;;1.70;;
12312;SDS011;6220;53.580;9.758;2022-12-07T11:13:40;6.93;;;1.93;;
12312;SDS011;6220;53.580;9.758;2022-12-07T11:16:23;5.60;;;1.80;;
12312;SDS011;6220;53.580;9.758;2022-12-07T11:21:57;4.23;;;1.63;;
12312;SDS011;6220;53.580;9.758;2022-12-07T11:27:30;4.13;;;1.53;;
12312;SDS011;6220;53.580;9.758;2022-12-07T11:38:33;5.23;;;1.90;;
12312;SDS011;6220;53.580;9.758;2022-12-07T11:41:06;6.10;;;1.70;;
12312;SDS011;6220;53.580;9.758;2022-12-07T11:43:37;5.70;;;2.00;;
12312;SDS011;6220;53.580;9.758;2022-12-07T11:46:27;6.27;;;1.93;;
12312;SDS011;6220;53.580;9.758;2022-12-07T11:49:08;11.00;;;2.70;;
12312;SDS011;6220;53.580;9.758;2022-12-07T11:51:38;8.03;;;2.03;;
12312;SDS011;6220;53.580;9.758;2022-12-07T11:54:17;7.80;;;3.57;;
12312;SDS011;6220;53.580;9.758;2022-12-07T11:56:47;8.50;;;3.33;;
12312;SDS011;6220;53.580;9.758;2022-12-07T12:06:53;6.20;;;1.93;;
12312;SDS011;6220;53.580;9.758;2022-12-07T12:22:52;6.63;;;2.00;;
12312;SDS011;6220;53.580;9.758;2022-12-07T12:25:27;5.17;;;2.87;;
12312;SDS011;6220;53.580;9.758;2022-12-07T12:27:55;9.47;;;2.67;;
12312;SDS011;6220;53.580;9.758;2022-12-07T12:33:33;6.50;;;2.30;;
12312;SDS011;6220;53.580;9.758;2022-12-07T12:54:23;5.40;;;2.40;;
12312;SDS011;6220;53.580;9.758;2022-12-07T12:59:36;5.03;;;1.93;;
12312;SDS011;6220;53.580;9.758;2022-12-07T13:02:20;9.27;;;2.30;;
12312;SDS011;6220;53.580;9.758;2022-12-07T13:18:22;13.63;;;3.57;;
12312;SDS011;6220;53.580;9.758;2022-12-07T13:21:00;14.80;;;5.60;;
12312;SDS011;6220;53.580;9.758;2022-12-07T13:28:41;9.57;;;2.20;;
12312;SDS011;6220;53.580;9.758;2022-12-07T13:31:15;8.00;;;2.53;;
12312;SDS011;6220;53.580;9.758;2022-12-07T13:33:56;7.70;;;2.60;;
12312;SDS011;6220;53.580;9.758;2022-12-07T13:41:48;7.30;;;1.90;;
12312;SDS011;6220;53.580;9.758;2022-12-07T13:44:18;5.40;;;2.23;;
12312;SDS011;6220;53.580;9.758;2022-12-07T13:49:38;7.87;;;2.23;;
12312;SDS011;6220;53.580;9.758;2022-12-07T13:57:24;7.80;;;1.70;;
12312;SDS011;6220;53.580;9.758;2022-12-07T13:59:50;5.93;;;1.80;;
12312;SDS011;6220;53.580;9.758;2022-12-07T14:04:51;7.27;;;2.73;;
12312;SDS011;6220;53.580;9.758;2022-12-07T14:07:21;6.73;;;2.60;;
12312;SDS011;6220;53.580;9.758;2022-12-07T14:09:56;7.10;;;2.30;;
12312;SDS011;6220;53.580;9.758;2022-12-07T14:12:23;6.27;;;1.77;;
12312;SDS011;6220;53.580;9.758;2022-12-07T14:14:50;6.43;;;1.70;;
12312;SDS011;6220;53.580;9.758;2022-12-07T14:17:16;6.90;;;1.60;;
12312;SDS011;6220;53.580;9.758;2022-12-07T14:19:49;4.10;;;1.80;;
12312;SDS011;6220;53.580;9.758;2022-12-07T14:27:29;6.03;;;1.73;;
12312;SDS011;6220;53.580;9.758;2022-12-07T14:29:58;4.90;;;1.70;;
12312;SDS011;6220;53.580;9.758;2022-12-07T14:32:25;18.93;;;12.17;;
12312;SDS011;6220;53.580;9.758;2022-12-07T14:34:56;8.20;;;3.63;;
12312;SDS011;6220;53.580;9.758;2022-12-07T14:37:32;6.07;;;1.93;;
12312;SDS011;6220;53.580;9.758;2022-12-07T14:39:58;5.17;;;1.97;;
12312;SDS011;6220;53.580;9.758;2022-12-07T14:42:26;6.33;;;2.30;;
12312;SDS011;6220;53.580;9.758;2022-12-07T14:44:53;8.30;;;2.23;;
12312;SDS011;6220;53.580;9.758;2022-12-07T14:47:18;7.07;;;2.00;;
12312;SDS011;6220;53.580;9.758;2022-12-07T14:49:44;5.60;;;1.67;;
12312;SDS011;6220;53.580;9.758;2022-12-07T14:52:12;3.30;;;1.80;;
12312;SDS011;6220;53.580;9.758;2022-12-07T14:54:40;6.27;;;1.90;;
12312;SDS011;6220;53.580;9.758;2022-12-07T14:57:07;6.73;;;2.00;;
12312;SDS011;6220;53.580;9.758;2022-12-07T14:59:37;4.33;;;2.03;;
12312;SDS011;6220;53.580;9.758;2022-12-07T15:02:03;9.07;;;2.07;;
12312;SDS011;6220;53.580;9.758;2022-12-07T15:04:29;7.00;;;2.03;;
12312;SDS011;6220;53.580;9.758;2022-12-07T15:06:58;7.33;;;2.17;;
12312;SDS011;6220;53.580;9.758;2022-12-07T15:09:25;10.77;;;2.20;;
12312;SDS011;6220;53.580;9.758;2022-12-07T15:11:51;7.43;;;2.23;;
12312;SDS011;6220;53.580;9.758;2022-12-07T15:14:16;4.10;;;2.10;;
12312;SDS011;6220;53.580;9.758;2022-12-07T15:16:42;6.13;;;1.73;;
12312;SDS011;6220;53.580;9.758;2022-12-07T15:19:15;6.57;;;2.20;;
12312;SDS011;6220;53.580;9.758;2022-12-07T15:21:49;6.83;;;1.90;;
12312;SDS011;6220;53.580;9.758;2022-12-07T15:24:15;8.30;;;2.27;;
12312;SDS011;6220;53.580;9.758;2022-12-07T15:26:41;5.73;;;2.90;;
12312;SDS011;6220;53.580;9.758;2022-12-07T15:29:25;13.47;;;2.57;;
12312;SDS011;6220;53.580;9.758;2022-12-07T15:31:50;5.67;;;2.20;;
12312;SDS011;6220;53.580;9.758;2022-12-07T15:34:16;5.67;;;2.20;;
12312;SDS011;6220;53.580;9.758;2022-12-07T15:36:41;4.83;;;1.80;;
12312;SDS011;6220;53.580;9.758;2022-12-07T15:39:08;3.80;;;1.93;;
12312;SDS011;6220;53.580;9.758;2022-12-07T15:41:34;5.23;;;2.47;;
12312;SDS011;6220;53.580;9.758;2022-12-07T15:44:00;8.13;;;3.47;;
12312;SDS011;6220;53.580;9.758;2022-12-07T15:46:49;6.43;;;2.80;;
12312;SDS011;6220;53.580;9.758;2022-12-07T15:49:19;5.00;;;2.03;;
12312;SDS011;6220;53.580;9.758;2022-12-07T15:51:45;7.73;;;2.20;;
12312;SDS011;6220;53.580;9.758;2022-12-07T15:54:21;7.80;;;2.50;;
12312;SDS011;6220;53.580;9.758;2022-12-07T15:56:47;6.40;;;2.90;;
12312;SDS011;6220;53.580;9.758;2022-12-07T15:59:13;11.73;;;4.50;;
12312;SDS011;6220;53.580;9.758;2022-12-07T16:01:39;10.53;;;4.53;;
12312;SDS011;6220;53.580;9.758;2022-12-07T16:04:04;17.40;;;5.83;;
12312;SDS011;6220;53.580;9.758;2022-12-07T16:06:29;17.17;;;6.50;;
12312;SDS011;6220;53.580;9.758;2022-12-07T16:08:55;14.50;;;5.73;;
12312;SDS011;6220;53.580;9.758;2022-12-07T16:11:20;10.50;;;5.83;;
12312;SDS011;6220;53.580;9.758;2022-12-07T16:13:46;11.70;;;5.73;;
12312;SDS011;6220;53.580;9.758;2022-12-07T16:16:13;6.33;;;3.53;;
12312;SDS011;6220;53.580;9.758;2022-12-07T16:18:44;5.83;;;3.47;;
12312;SDS011;6220;53.580;9.758;2022-12-07T16:21:12;9.53;;;4.67;;
12312;SDS011;6220;53.580;9.758;2022-12-07T16:23:38;10.10;;;5.70;;
12312;SDS011;6220;53.580;9.758;2022-12-07T16:26:11;12.57;;;7.40;;
12312;SDS011;6220;53.580;9.758;2022-12-07T16:28:52;7.23;;;5.40;;
12312;SDS011;6220;53.580;9.758;2022-12-07T16:31:20;9.73;;;4.60;;
12312;SDS011;6220;53.580;9.758;2022-12-07T16:33:47;5.80;;;3.03;;
12312;SDS011;6220;53.580;9.758;2022-12-07T16:36:14;9.13;;;3.13;;
12312;SDS011;6220;53.580;9.758;2022-12-07T16:38:41;5.07;;;2.53;;
12312;SDS011;6220;53.580;9.758;2022-12-07T16:41:07;9.63;;;2.60;;
12312;SDS011;6220;53.580;9.758;2022-12-07T16:43:32;5.53;;;2.70;;
12312;SDS011;6220;53.580;9.758;2022-12-07T16:45:58;7.33;;;2.70;;
12312;SDS011;6220;53.580;9.758;2022-12-07T16:48:23;6.03;;;3.57;;
12312;SDS011;6220;53.580;9.758;2022-12-07T16:50:50;10.47;;;7.47;;
12312;SDS011;6220;53.580;9.758;2022-12-07T16:53:18;9.23;;;6.13;;
12312;SDS011;6220;53.580;9.758;2022-12-07T16:55:44;7.30;;;4.50;;
12312;SDS011;6220;53.580;9.758;2022-12-07T16:58:11;8.13;;;4.20;;
12312;SDS011;6220;53.580;9.758;2022-12-07T17:00:37;5.87;;;3.30;;
12312;SDS011;6220;53.580;9.758;2022-12-07T17:03:03;5.83;;;3.70;;
12312;SDS011;6220;53.580;9.758;2022-12-07T17:05:28;7.57;;;3.50;;
12312;SDS011;6220;53.580;9.758;2022-12-07T17:07:54;4.20;;;3.30;;
12312;SDS011;6220;53.580;9.758;2022-12-07T17:10:20;5.10;;;3.23;;
12312;SDS011;6220;53.580;9.758;2022-12-07T17:12:46;11.93;;;5.57;;
12312;SDS011;6220;53.580;9.758;2022-12-07T17:15:11;8.13;;;5.20;;
12312;SDS011;6220;53.580;9.758;2022-12-07T17:17:47;8.73;;;3.80;;
12312;SDS011;6220;53.580;9.758;2022-12-07T17:20:17;5.17;;;3.17;;
12312;SDS011;6220;53.580;9.758;2022-12-07T17:22:43;11.40;;;3.70;;
12312;SDS011;6220;53.580;9.758;2022-12-07T17:25:09;9.07;;;3.33;;
12312;SDS011;6220;53.580;9.758;2022-12-07T17:27:34;8.57;;;3.37;;
12312;SDS011;6220;53.580;9.758;2022-12-07T17:30:00;20.53;;;11.20;;
12312;SDS011;6220;53.580;9.758;2022-12-07T17:32:26;16.37;;;7.80;;